SBI5320 UNEE-UNNT
Flight info
| Callsign | SBI5320 |
|---|---|
| Flight time | 0h 32m |
| Altitude | 20000 |
| Route | NATIR1D NATIR NATIR1K |
| Aircraft | E170/M-SDE3GILORVW/S |
Departure
| Time | 2026-04-14 20:07 |
|---|---|
| Airport | Alexei Leonov Kemerovo International Airport (UNEE) |
Arrival
| Time | 2026-04-14 20:39 |
|---|---|
| Airport | Novosibirsk Tolmachevo Airport (UNNT) |
| Time | Latitude | Longitude | Altitude | Speed | Heading |
|---|---|---|---|---|---|
| 2026-04-14 19:53 | 55.27957 | 86.11746 | 860 ft | 0 kts | 325° |
| 2026-04-14 20:02 | 55.27960 | 86.11742 | 860 ft | 1 kts | 325° |
| 2026-04-14 20:03 | 55.27988 | 86.11714 | 860 ft | 7 kts | 344° |
| 2026-04-14 20:03 | 55.28036 | 86.11773 | 860 ft | 11 kts | 55° |
| 2026-04-14 20:03 | 55.28085 | 86.11900 | 858 ft | 14 kts | 55° |
| 2026-04-14 20:03 | 55.28158 | 86.12038 | 855 ft | 16 kts | 53° |
| 2026-04-14 20:04 | 55.28193 | 86.12172 | 852 ft | 12 kts | 107° |
| 2026-04-14 20:04 | 55.28121 | 86.12274 | 848 ft | 15 kts | 144° |
| 2026-04-14 20:04 | 55.28041 | 86.12431 | 844 ft | 18 kts | 126° |
| 2026-04-14 20:04 | 55.27967 | 86.12611 | 838 ft | 14 kts | 129° |
| 2026-04-14 20:05 | 55.27940 | 86.12660 | 836 ft | 1 kts | 144° |
| 2026-04-14 20:05 | 55.27923 | 86.12682 | 835 ft | 4 kts | 144° |
| 2026-04-14 20:05 | 55.27889 | 86.12725 | 834 ft | 7 kts | 144° |
| 2026-04-14 20:05 | 55.27837 | 86.12733 | 834 ft | 8 kts | 213° |
| 2026-04-14 20:06 | 55.27802 | 86.12666 | 835 ft | 0 kts | 234° |
| 2026-04-14 20:06 | 55.27799 | 86.12658 | 836 ft | 2 kts | 234° |
| 2026-04-14 20:06 | 55.27745 | 86.12531 | 841 ft | 40 kts | 232° |
| 2026-04-14 20:06 | 55.27433 | 86.11794 | 864 ft | 107 kts | 232° |
| 2026-04-14 20:07 | 55.26891 | 86.10497 | 969 ft | 148 kts | 233° |
| 2026-04-14 20:07 | 55.26299 | 86.09042 | 1563 ft | 152 kts | 233° |
| 2026-04-14 20:07 | 55.25705 | 86.07546 | 2356 ft | 155 kts | 234° |
| 2026-04-14 20:07 | 55.25055 | 86.05919 | 2903 ft | 177 kts | 234° |
| 2026-04-14 20:08 | 55.24293 | 86.04085 | 3502 ft | 197 kts | 233° |
| 2026-04-14 20:08 | 55.23432 | 86.02062 | 4164 ft | 216 kts | 233° |
| 2026-04-14 20:08 | 55.22526 | 85.99966 | 5095 ft | 223 kts | 233° |
| 2026-04-14 20:08 | 55.21603 | 85.97851 | 6215 ft | 221 kts | 234° |
| 2026-04-14 20:09 | 55.20687 | 85.95766 | 7292 ft | 219 kts | 234° |
| 2026-04-14 20:09 | 55.19781 | 85.93684 | 8283 ft | 218 kts | 236° |
| 2026-04-14 20:09 | 55.18889 | 85.91581 | 9208 ft | 220 kts | 236° |
| 2026-04-14 20:09 | 55.17981 | 85.89440 | 10097 ft | 223 kts | 237° |
| 2026-04-14 20:10 | 55.17061 | 85.87272 | 10865 ft | 230 kts | 237° |
| 2026-04-14 20:10 | 55.16077 | 85.84956 | 11424 ft | 246 kts | 237° |
| 2026-04-14 20:10 | 55.15390 | 85.82202 | 11896 ft | 257 kts | 267° |
| 2026-04-14 20:10 | 55.15456 | 85.79011 | 12462 ft | 270 kts | 275° |
| 2026-04-14 20:11 | 55.15596 | 85.75729 | 13157 ft | 279 kts | 275° |
| 2026-04-14 20:11 | 55.15738 | 85.72360 | 13980 ft | 282 kts | 275° |
| 2026-04-14 20:11 | 55.15882 | 85.68932 | 14834 ft | 284 kts | 276° |
| 2026-04-14 20:11 | 55.16025 | 85.65510 | 15679 ft | 286 kts | 276° |
| 2026-04-14 20:12 | 55.16168 | 85.62063 | 16485 ft | 288 kts | 276° |
| 2026-04-14 20:12 | 55.16312 | 85.58571 | 17262 ft | 291 kts | 276° |
| 2026-04-14 20:12 | 55.16457 | 85.55045 | 18029 ft | 294 kts | 276° |
| 2026-04-14 20:12 | 55.16602 | 85.51475 | 18750 ft | 298 kts | 276° |
| 2026-04-14 20:13 | 55.16748 | 85.47858 | 19483 ft | 301 kts | 276° |
| 2026-04-14 20:13 | 55.16894 | 85.44222 | 20206 ft | 304 kts | 277° |
| 2026-04-14 20:13 | 55.17043 | 85.40501 | 20571 ft | 318 kts | 277° |
| 2026-04-14 20:13 | 55.17202 | 85.36482 | 20584 ft | 342 kts | 276° |
| 2026-04-14 20:14 | 55.17367 | 85.32265 | 20632 ft | 363 kts | 276° |
| 2026-04-14 20:14 | 55.17544 | 85.27696 | 20668 ft | 382 kts | 276° |
| 2026-04-14 20:14 | 55.17717 | 85.23147 | 20701 ft | 370 kts | 276° |
| 2026-04-14 20:14 | 55.17881 | 85.18802 | 20683 ft | 341 kts | 276° |
| 2026-04-14 20:15 | 55.18029 | 85.14844 | 20659 ft | 316 kts | 276° |
| 2026-04-14 20:15 | 55.18167 | 85.11161 | 20637 ft | 300 kts | 276° |
| 2026-04-14 20:15 | 55.18304 | 85.07498 | 20660 ft | 301 kts | 276° |
| 2026-04-14 20:15 | 55.18439 | 85.03851 | 20698 ft | 305 kts | 276° |
| 2026-04-14 20:16 | 55.18574 | 85.00142 | 20744 ft | 307 kts | 276° |
| 2026-04-14 20:16 | 55.18707 | 84.96448 | 20771 ft | 307 kts | 276° |
| 2026-04-14 20:16 | 55.18842 | 84.92701 | 20818 ft | 308 kts | 276° |
| 2026-04-14 20:16 | 55.18973 | 84.88982 | 20849 ft | 307 kts | 276° |
| 2026-04-14 20:17 | 55.19105 | 84.85261 | 20878 ft | 308 kts | 276° |
| 2026-04-14 20:17 | 55.19236 | 84.81516 | 20904 ft | 308 kts | 276° |
| 2026-04-14 20:17 | 55.19364 | 84.77795 | 20931 ft | 308 kts | 276° |
| 2026-04-14 20:17 | 55.19492 | 84.74086 | 20960 ft | 308 kts | 276° |
| 2026-04-14 20:18 | 55.19580 | 84.70360 | 20979 ft | 310 kts | 268° |
| 2026-04-14 20:18 | 55.19094 | 84.66654 | 21047 ft | 315 kts | 258° |
| 2026-04-14 20:18 | 55.18481 | 84.62999 | 21087 ft | 316 kts | 258° |
| 2026-04-14 20:18 | 55.17852 | 84.59305 | 21112 ft | 316 kts | 258° |
| 2026-04-14 20:19 | 55.17229 | 84.55673 | 21115 ft | 310 kts | 258° |
| 2026-04-14 20:19 | 55.16618 | 84.52134 | 20735 ft | 301 kts | 258° |
| 2026-04-14 20:19 | 55.16017 | 84.48647 | 20023 ft | 303 kts | 257° |
| 2026-04-14 20:19 | 55.15407 | 84.45123 | 19245 ft | 306 kts | 257° |
| 2026-04-14 20:20 | 55.14796 | 84.41608 | 18518 ft | 307 kts | 257° |
| 2026-04-14 20:20 | 55.14183 | 84.38085 | 17887 ft | 304 kts | 257° |
| 2026-04-14 20:20 | 55.13569 | 84.34557 | 17258 ft | 300 kts | 256° |
| 2026-04-14 20:20 | 55.12964 | 84.31098 | 16660 ft | 298 kts | 256° |
| 2026-04-14 20:21 | 55.12371 | 84.27706 | 16060 ft | 295 kts | 256° |
| 2026-04-14 20:21 | 55.11776 | 84.24312 | 15437 ft | 293 kts | 255° |
| 2026-04-14 20:21 | 55.11184 | 84.20941 | 14824 ft | 291 kts | 255° |
| 2026-04-14 20:21 | 55.10592 | 84.17577 | 14229 ft | 289 kts | 255° |
| 2026-04-14 20:22 | 55.10011 | 84.14282 | 13677 ft | 285 kts | 255° |
| 2026-04-14 20:22 | 55.09433 | 84.11010 | 13138 ft | 281 kts | 255° |
| 2026-04-14 20:22 | 55.08858 | 84.07755 | 12590 ft | 278 kts | 255° |
| 2026-04-14 20:22 | 55.08296 | 84.04584 | 12052 ft | 274 kts | 255° |
| 2026-04-14 20:23 | 55.07912 | 84.01363 | 11539 ft | 268 kts | 265° |
| 2026-04-14 20:23 | 55.07720 | 83.98210 | 11192 ft | 258 kts | 265° |
| 2026-04-14 20:23 | 55.07533 | 83.95146 | 10901 ft | 248 kts | 265° |
| 2026-04-14 20:23 | 55.07354 | 83.92223 | 10605 ft | 239 kts | 264° |
| 2026-04-14 20:24 | 55.07182 | 83.89426 | 10304 ft | 231 kts | 264° |
| 2026-04-14 20:24 | 55.07012 | 83.86678 | 9994 ft | 225 kts | 264° |
| 2026-04-14 20:24 | 55.06846 | 83.84012 | 9674 ft | 220 kts | 265° |
| 2026-04-14 20:24 | 55.06684 | 83.81404 | 9318 ft | 216 kts | 265° |
| 2026-04-14 20:25 | 55.06522 | 83.78814 | 8956 ft | 214 kts | 265° |
| 2026-04-14 20:25 | 55.06362 | 83.76253 | 8590 ft | 212 kts | 265° |
| 2026-04-14 20:25 | 55.06201 | 83.73698 | 8211 ft | 211 kts | 265° |
| 2026-04-14 20:25 | 55.06042 | 83.71180 | 7842 ft | 210 kts | 265° |
| 2026-04-14 20:26 | 55.05883 | 83.68671 | 7473 ft | 209 kts | 265° |
| 2026-04-14 20:26 | 55.05723 | 83.66145 | 7102 ft | 208 kts | 265° |
| 2026-04-14 20:26 | 55.05564 | 83.63660 | 6732 ft | 207 kts | 265° |
| 2026-04-14 20:26 | 55.05659 | 83.61216 | 6346 ft | 206 kts | 291° |
| 2026-04-14 20:27 | 55.06226 | 83.58932 | 5981 ft | 205 kts | 293° |
| 2026-04-14 20:27 | 55.06791 | 83.56645 | 5610 ft | 204 kts | 284° |
| 2026-04-14 20:27 | 55.06669 | 83.54275 | 5213 ft | 203 kts | 240° |
| 2026-04-14 20:27 | 55.05785 | 83.52358 | 4843 ft | 203 kts | 233° |
| 2026-04-14 20:28 | 55.04970 | 83.50399 | 4490 ft | 202 kts | 238° |
| 2026-04-14 20:28 | 55.04226 | 83.48309 | 4138 ft | 200 kts | 240° |
| 2026-04-14 20:28 | 55.03555 | 83.46233 | 3800 ft | 199 kts | 242° |
| 2026-04-14 20:28 | 55.02905 | 83.44097 | 3457 ft | 197 kts | 242° |
| 2026-04-14 20:29 | 55.02283 | 83.41985 | 3120 ft | 196 kts | 242° |
| 2026-04-14 20:29 | 55.01681 | 83.39896 | 2802 ft | 194 kts | 242° |
| 2026-04-14 20:29 | 55.01066 | 83.37742 | 2916 ft | 202 kts | 242° |
| 2026-04-14 20:29 | 55.00447 | 83.35555 | 2888 ft | 200 kts | 243° |
| 2026-04-14 20:30 | 54.99832 | 83.33375 | 2889 ft | 199 kts | 242° |
| 2026-04-14 20:30 | 54.99223 | 83.31214 | 2893 ft | 200 kts | 242° |
| 2026-04-14 20:30 | 54.98620 | 83.29049 | 2892 ft | 200 kts | 242° |
| 2026-04-14 20:30 | 54.98004 | 83.26865 | 2895 ft | 199 kts | 242° |
| 2026-04-14 20:31 | 54.97393 | 83.24702 | 2896 ft | 200 kts | 242° |
| 2026-04-14 20:31 | 54.96778 | 83.22524 | 2896 ft | 200 kts | 242° |
| 2026-04-14 20:31 | 54.96168 | 83.20363 | 2897 ft | 199 kts | 242° |
| 2026-04-14 20:31 | 54.95562 | 83.18217 | 2892 ft | 199 kts | 242° |
| 2026-04-14 20:32 | 54.94949 | 83.16048 | 2888 ft | 199 kts | 242° |
| 2026-04-14 20:32 | 54.94346 | 83.13917 | 2891 ft | 198 kts | 242° |
| 2026-04-14 20:32 | 54.93733 | 83.11749 | 2892 ft | 198 kts | 242° |
| 2026-04-14 20:32 | 54.93211 | 83.09549 | 2886 ft | 201 kts | 262° |
| 2026-04-14 20:33 | 54.93583 | 83.07206 | 2932 ft | 212 kts | 302° |
| 2026-04-14 20:33 | 54.94531 | 83.05199 | 2909 ft | 214 kts | 306° |
| 2026-04-14 20:33 | 54.95495 | 83.03249 | 2898 ft | 214 kts | 306° |
| 2026-04-14 20:34 | 54.97467 | 82.99316 | 2890 ft | 214 kts | 307° |
| 2026-04-14 20:34 | 54.98441 | 82.97385 | 2883 ft | 210 kts | 307° |
| 2026-04-14 20:34 | 54.99374 | 82.95541 | 2824 ft | 195 kts | 306° |
| 2026-04-14 20:34 | 55.00245 | 82.93819 | 2659 ft | 188 kts | 306° |
| 2026-04-14 20:35 | 55.01110 | 82.92103 | 2368 ft | 187 kts | 306° |
| 2026-04-14 20:35 | 55.01961 | 82.90415 | 2042 ft | 189 kts | 305° |
| 2026-04-14 20:35 | 55.02802 | 82.88724 | 1972 ft | 172 kts | 297° |
| 2026-04-14 20:35 | 55.03081 | 82.86934 | 1886 ft | 145 kts | 260° |
| 2026-04-14 20:36 | 55.03021 | 82.85115 | 1780 ft | 153 kts | 261° |
| 2026-04-14 20:36 | 55.02895 | 82.83337 | 1737 ft | 143 kts | 256° |
| 2026-04-14 20:36 | 55.02746 | 82.81696 | 1747 ft | 134 kts | 255° |
| 2026-04-14 20:36 | 55.02599 | 82.80070 | 1710 ft | 134 kts | 256° |
| 2026-04-14 20:37 | 55.02461 | 82.78524 | 1613 ft | 124 kts | 255° |
| 2026-04-14 20:37 | 55.02330 | 82.77064 | 1460 ft | 120 kts | 255° |
| 2026-04-14 20:37 | 55.02199 | 82.75623 | 1312 ft | 121 kts | 256° |
| 2026-04-14 20:37 | 55.02067 | 82.74168 | 1164 ft | 129 kts | 256° |
| 2026-04-14 20:38 | 55.01891 | 82.72462 | 1175 ft | 145 kts | 257° |
| 2026-04-14 20:38 | 55.01762 | 82.70790 | 890 ft | 135 kts | 258° |
| 2026-04-14 20:38 | 55.01622 | 82.69206 | 548 ft | 129 kts | 257° |
| 2026-04-14 20:38 | 55.01483 | 82.67722 | 367 ft | 121 kts | 258° |
| 2026-04-14 20:39 | 55.01362 | 82.66443 | 353 ft | 86 kts | 261° |
| 2026-04-14 20:39 | 55.01297 | 82.65684 | 353 ft | 40 kts | 263° |
| 2026-04-14 20:39 | 55.01279 | 82.65435 | 353 ft | 4 kts | 261° |
| 2026-04-14 20:39 | 55.01271 | 82.65351 | 353 ft | 18 kts | 260° |
| 2026-04-14 20:40 | 55.01242 | 82.65096 | 353 ft | 15 kts | 224° |
| 2026-04-14 20:40 | 55.01137 | 82.65070 | 353 ft | 16 kts | 168° |
| 2026-04-14 20:40 | 55.01037 | 82.65105 | 353 ft | 11 kts | 170° |
| 2026-04-14 20:40 | 55.00951 | 82.65080 | 353 ft | 17 kts | 220° |
| 2026-04-14 20:41 | 55.00856 | 82.64918 | 353 ft | 19 kts | 237° |
| 2026-04-14 20:41 | 55.00796 | 82.64818 | 353 ft | 4 kts | 181° |
| 2026-04-14 20:41 | 55.00792 | 82.64818 | 353 ft | 1 kts | 180° |
| 2026-04-14 20:41 | 55.00780 | 82.64817 | 353 ft | 2 kts | 187° |
| 2026-04-14 20:42 | 55.00770 | 82.64823 | 353 ft | 0 kts | 100° |
| 2026-04-14 20:42 | 55.00769 | 82.64828 | 353 ft | 0 kts | 100° |
| 2026-04-14 20:42 | 55.00769 | 82.64833 | 353 ft | 0 kts | 100° |
| 2026-04-14 20:43 | 55.00768 | 82.64836 | 353 ft | 0 kts | 128° |
| 2026-04-14 20:43 | 55.00763 | 82.64841 | 353 ft | 1 kts | 144° |
| 2026-04-14 20:43 | 55.00758 | 82.64852 | 353 ft | 2 kts | 115° |
| 2026-04-14 20:43 | 55.00758 | 82.64869 | 353 ft | 2 kts | 68° |
| 2026-04-14 20:44 | 55.00767 | 82.64902 | 353 ft | 3 kts | 62° |
| 2026-04-14 20:44 | 55.00779 | 82.64941 | 353 ft | 0 kts | 62° |
| 2026-04-14 20:45 | 55.00780 | 82.64942 | 353 ft | 0 kts | 53° |
| 2026-04-14 20:45 | 55.00784 | 82.64943 | 353 ft | 0 kts | 350° |
| 2026-04-14 20:45 | 55.00784 | 82.64942 | 353 ft | 0 kts | 350° |
| 2026-04-14 20:45 | 55.00790 | 82.64941 | 353 ft | 1 kts | 350° |
| 2026-04-14 20:46 | 55.00794 | 82.64939 | 353 ft | 0 kts | 349° |
| 2026-04-14 20:46 | 55.00803 | 82.64936 | 353 ft | 2 kts | 349° |
| 2026-04-14 20:46 | 55.00806 | 82.64935 | 353 ft | 0 kts | 349° |
| 2026-04-14 21:24 | 55.00825 | 82.64929 | 353 ft | 5 kts | 350° |
| 2026-04-14 21:25 | 55.00869 | 82.64960 | 353 ft | 8 kts | 76° |
| 2026-04-14 21:25 | 55.00872 | 82.65073 | 353 ft | 9 kts | 89° |
| 2026-04-14 21:25 | 55.00880 | 82.65197 | 353 ft | 10 kts | 82° |
| 2026-04-14 21:25 | 55.00886 | 82.65328 | 355 ft | 9 kts | 84° |
| 2026-04-14 21:26 | 55.00899 | 82.65453 | 355 ft | 11 kts | 81° |
| 2026-04-14 21:26 | 55.00911 | 82.65586 | 356 ft | 11 kts | 82° |
| 2026-04-14 21:26 | 55.00924 | 82.65730 | 358 ft | 11 kts | 81° |
| 2026-04-14 21:26 | 55.00937 | 82.65875 | 358 ft | 12 kts | 82° |
| 2026-04-14 21:27 | 55.00951 | 82.66038 | 357 ft | 14 kts | 78° |
| 2026-04-14 21:27 | 55.00985 | 82.66212 | 356 ft | 16 kts | 70° |
| 2026-04-14 21:27 | 55.01028 | 82.66401 | 356 ft | 16 kts | 71° |
| 2026-04-14 21:27 | 55.01036 | 82.66512 | 356 ft | 6 kts | 142° |
| 2026-04-14 21:28 | 55.00990 | 82.66537 | 356 ft | 7 kts | 171° |
| 2026-04-14 21:28 | 55.00958 | 82.66547 | 356 ft | 1 kts | 171° |
| 2026-04-14 21:28 | 55.00948 | 82.66549 | 356 ft | 0 kts | 171° |
| 2026-04-14 21:28 | 55.00944 | 82.66550 | 356 ft | 0 kts | 171° |